Bellocq, Argentina
Current Conditions -  °F | °C
As of 9:00 AM on Saturday 25 Oct 2014 (Local Time) from SAEZ Reporting Station
Haze Haze  
Wind Chill: 77°   Ceiling: Unl
Heat Index: 79°   Visibility: 3mi
Dew Point: 63°   Wind: 3mph
Humidity: 61%   Direction: 360°N
Pressure: 29.97"   Gusts: NA
Location:  35.8°S, 61.35°W
Report Text: SAEZ 251200Z 36003KT 300V070 5000 BR NSC 25/17 Q1015
Loading
Personal Weather Stations






























Interactive Weather Map New forecast layout! Learn more

10-Day Weather Forecast

Advertisements
Track Severe Weather on mobile